createdAt,value
2023-01-13T00:00:19.599Z,98840.34
2023-01-13T00:02:47.401Z,98836.19
2023-01-13T00:05:15.104Z,98836.78
2023-01-13T00:07:43.361Z,98831.13
2023-01-13T00:10:12.479Z,98833.59
2023-01-13T00:12:41.909Z,98826.75
2023-01-13T00:15:11.217Z,98824.47
2023-01-13T00:17:39.271Z,98826.69
2023-01-13T00:20:07.865Z,98820.44
2023-01-13T00:22:36.494Z,98815.69
2023-01-13T00:25:06.622Z,98816.09
2023-01-13T00:27:34.934Z,98817.13
2023-01-13T00:30:02.864Z,98815.25
2023-01-13T00:32:30.534Z,98820.59
2023-01-13T00:34:58.875Z,98820.22
2023-01-13T00:37:26.887Z,98820.81
2023-01-13T00:39:54.755Z,98820.00
2023-01-13T00:42:48.307Z,98809.34
2023-01-13T00:45:16.018Z,98817.50
2023-01-13T00:47:43.663Z,98820.81
2023-01-13T00:50:11.940Z,98817.84
2023-01-13T00:52:42.297Z,98812.28
2023-01-13T00:55:10.342Z,98807.91
2023-01-13T00:57:38.038Z,98818.66
2023-01-13T01:00:05.936Z,98819.16
2023-01-13T01:02:33.728Z,98817.00
2023-01-13T01:05:01.411Z,98814.19
2023-01-13T01:07:29.075Z,98814.88
2023-01-13T01:09:56.701Z,98801.97
2023-01-13T01:12:24.388Z,98804.13
2023-01-13T01:14:51.995Z,98802.59
2023-01-13T01:17:19.683Z,98802.00
2023-01-13T01:19:47.361Z,98813.72
2023-01-13T01:22:14.986Z,98815.34
2023-01-13T01:24:42.589Z,98808.72
2023-01-13T01:27:10.256Z,98787.78
2023-01-13T01:29:37.899Z,98809.91
2023-01-13T01:32:05.705Z,98805.03
2023-01-13T01:34:33.436Z,98799.38
2023-01-13T01:37:01.101Z,98801.75
2023-01-13T01:39:28.756Z,98805.16
2023-01-13T01:42:13.713Z,98794.41
2023-01-13T01:44:44.488Z,98787.44
2023-01-13T01:47:18.504Z,98783.41
2023-01-13T01:49:47.499Z,98777.72
2023-01-13T01:52:33.551Z,98781.38
2023-01-13T01:55:16.892Z,98779.38
2023-01-13T01:57:57.316Z,98761.75
2023-01-13T02:00:27.854Z,98746.56
2023-01-13T02:02:55.789Z,98747.06
2023-01-13T02:05:24.524Z,98755.19
2023-01-13T02:07:54.940Z,98754.25
2023-01-13T02:10:27.661Z,98756.16
2023-01-13T02:12:59.052Z,98735.91
2023-01-13T02:15:36.684Z,98748.16
2023-01-13T02:18:26.203Z,98748.81
2023-01-13T02:21:08.958Z,98748.00
2023-01-13T02:24:23.624Z,98740.63
2023-01-13T02:27:16.157Z,98744.13
2023-01-13T02:30:26.292Z,98741.41
2023-01-13T02:33:11.975Z,98732.66
2023-01-13T02:35:42.261Z,98736.84
2023-01-13T02:38:14.636Z,98736.03
2023-01-13T02:40:49.948Z,98727.19
2023-01-13T02:43:48.935Z,98735.75
2023-01-13T02:46:28.790Z,98726.94
2023-01-13T02:49:02.558Z,98731.63
2023-01-13T02:51:32.407Z,98726.75
2023-01-13T02:54:11.224Z,98730.09
2023-01-13T02:56:43.758Z,98727.25
2023-01-13T02:59:12.941Z,98722.78
2023-01-13T03:01:41.248Z,98721.16
2023-01-13T03:04:17.198Z,98714.22
2023-01-13T03:07:03.636Z,98714.41
2023-01-13T03:09:40.864Z,98710.00
2023-01-13T03:12:20.462Z,98686.75
2023-01-13T03:15:09.732Z,98705.75
2023-01-13T03:17:45.238Z,98711.34
2023-01-13T03:20:50.605Z,98720.66
2023-01-13T03:23:48.419Z,98689.53
2023-01-13T03:26:38.124Z,98714.88
2023-01-13T03:29:26.945Z,98709.06
2023-01-13T03:32:09.539Z,98701.25
2023-01-13T03:34:45.923Z,98684.84
2023-01-13T03:37:15.821Z,98693.69
2023-01-13T03:39:52.353Z,98696.41
2023-01-13T03:42:24.841Z,98694.91
2023-01-13T03:45:02.932Z,98691.75
2023-01-13T03:47:30.528Z,98692.66
2023-01-13T03:50:07.546Z,98689.84
2023-01-13T03:52:56.446Z,98664.19
2023-01-13T03:55:29.678Z,98679.03
2023-01-13T03:58:19.939Z,98680.69
2023-01-13T04:00:56.622Z,98681.34
2023-01-13T04:03:42.085Z,98677.28
2023-01-13T04:06:18.116Z,98675.28
2023-01-13T04:08:52.582Z,98638.47
2023-01-13T04:11:30.793Z,98676.19
2023-01-13T04:13:59.664Z,98663.75
2023-01-13T04:16:27.755Z,98659.59
2023-01-13T04:18:55.448Z,98660.75
2023-01-13T04:21:23.127Z,98669.59
2023-01-13T04:23:51.894Z,98677.66
2023-01-13T04:26:20.297Z,98647.78
2023-01-13T04:28:47.937Z,98666.25
2023-01-13T04:31:16.004Z,98667.94
2023-01-13T04:33:43.705Z,98670.34
2023-01-13T04:36:11.406Z,98667.94
2023-01-13T04:38:39.108Z,98671.81
2023-01-13T04:41:06.904Z,98641.13
2023-01-13T04:43:34.541Z,98674.75
2023-01-13T04:46:02.227Z,98675.38
2023-01-13T04:48:29.858Z,98663.91
2023-01-13T04:50:57.536Z,98672.88
2023-01-13T04:53:25.209Z,98670.75
2023-01-13T04:55:52.883Z,98581.63
2023-01-13T04:58:20.987Z,98605.03
2023-01-13T05:00:48.646Z,98665.59
2023-01-13T05:03:16.313Z,98661.41
2023-01-13T05:05:44.264Z,98662.06
2023-01-13T05:08:11.882Z,98643.81
2023-01-13T05:10:39.594Z,98637.44
2023-01-13T05:13:24.588Z,98645.41
2023-01-13T05:16:11.665Z,98643.47
2023-01-13T05:18:39.375Z,98639.34
2023-01-13T05:21:27.630Z,98615.41
2023-01-13T05:24:12.912Z,98636.50
2023-01-13T05:26:40.617Z,98636.47
2023-01-13T05:29:08.272Z,98620.75
2023-01-13T05:31:36.015Z,98640.03
2023-01-13T05:34:03.631Z,98637.28
2023-01-13T05:36:31.303Z,98640.72
2023-01-13T05:38:58.945Z,98633.91
2023-01-13T05:41:44.020Z,98634.19
2023-01-13T05:44:11.633Z,98639.19
2023-01-13T05:46:40.526Z,98648.78
2023-01-13T05:49:08.409Z,98649.13
2023-01-13T05:51:36.068Z,98647.78
2023-01-13T05:54:03.726Z,98641.53
2023-01-13T05:56:31.413Z,98655.56
2023-01-13T05:58:59.061Z,98651.75
2023-01-13T06:01:26.788Z,98661.50
2023-01-13T06:03:54.523Z,98653.66
2023-01-13T06:06:22.157Z,98655.13
2023-01-13T06:08:50.212Z,98662.78
2023-01-13T06:11:17.862Z,98666.09
2023-01-13T06:13:45.563Z,98650.94
2023-01-13T06:16:13.297Z,98655.53
2023-01-13T06:18:40.943Z,98651.34
2023-01-13T06:21:08.586Z,98671.06
2023-01-13T06:23:38.568Z,98671.06
2023-01-13T06:26:22.238Z,98671.66
2023-01-13T06:28:50.074Z,98683.47
2023-01-13T06:31:18.056Z,98680.97
2023-01-13T06:33:53.302Z,98660.44
2023-01-13T06:36:26.407Z,98682.94
2023-01-13T06:38:57.700Z,98680.66
2023-01-13T06:41:41.639Z,98683.75
2023-01-13T06:44:09.320Z,98683.59
2023-01-13T06:46:37.321Z,98681.28
2023-01-13T06:49:07.041Z,98697.16
2023-01-13T06:51:34.755Z,98687.78
2023-01-13T06:54:02.375Z,98692.06
2023-01-13T06:56:30.033Z,98665.69
2023-01-13T06:58:57.680Z,98673.25
2023-01-13T07:01:25.396Z,98679.16
2023-01-13T07:03:53.079Z,98609.66
2023-01-13T07:06:20.700Z,98686.16
2023-01-13T07:08:49.851Z,98685.91
2023-01-13T07:11:17.502Z,98688.41
2023-01-13T07:14:02.526Z,98685.56
2023-01-13T07:16:30.346Z,98664.41
2023-01-13T07:18:58.018Z,98685.41
2023-01-13T07:21:25.628Z,98692.66
2023-01-13T07:23:53.270Z,98685.44
2023-01-13T07:26:23.622Z,98693.94
2023-01-13T07:28:51.329Z,98683.66
2023-01-13T07:31:21.178Z,98692.91
2023-01-13T07:33:49.103Z,98686.75
2023-01-13T07:36:16.913Z,98691.22
2023-01-13T07:38:45.307Z,98679.38
2023-01-13T07:41:32.717Z,98689.53
2023-01-13T07:44:04.775Z,98680.88
2023-01-13T07:46:32.554Z,98684.28
2023-01-13T07:49:00.337Z,98683.28
2023-01-13T07:51:27.959Z,98688.56
2023-01-13T07:53:55.667Z,98682.75
2023-01-13T07:56:23.476Z,98681.59
2023-01-13T07:58:52.975Z,98676.22
2023-01-13T08:01:21.373Z,98678.28
2023-01-13T08:03:49.060Z,98683.91
2023-01-13T08:06:17.049Z,98677.75
2023-01-13T08:08:44.746Z,98647.84
2023-01-13T08:11:12.520Z,98615.34
2023-01-13T08:13:40.354Z,98631.97
2023-01-13T08:16:13.763Z,98631.72
2023-01-13T08:18:42.256Z,98627.97
2023-01-13T08:21:14.933Z,98625.72
2023-01-13T08:23:44.955Z,98637.16
2023-01-13T08:26:17.173Z,98647.06
2023-01-13T08:28:45.943Z,98619.09
2023-01-13T08:31:17.082Z,98654.22
2023-01-13T08:33:45.000Z,98660.19
2023-01-13T08:36:13.279Z,98662.56
2023-01-13T08:38:41.945Z,98666.38
2023-01-13T08:41:14.615Z,98628.88
2023-01-13T08:43:42.335Z,98669.31
2023-01-13T08:46:10.234Z,98656.16
2023-01-13T08:48:38.924Z,98667.34
2023-01-13T08:51:09.560Z,98669.69
2023-01-13T08:53:37.406Z,98650.88
2023-01-13T08:56:11.015Z,98674.66
2023-01-13T08:58:38.839Z,98678.25
2023-01-13T09:01:08.734Z,98673.69
2023-01-13T09:03:36.510Z,98664.91
2023-01-13T09:06:04.349Z,98690.06
2023-01-13T09:08:32.089Z,98681.56
2023-01-13T09:10:59.979Z,98681.19
2023-01-13T09:13:26.635Z,98686.16
2023-01-13T09:15:56.832Z,98684.81
2023-01-13T09:18:24.785Z,98690.22
2023-01-13T09:20:52.509Z,98692.63
2023-01-13T09:23:20.224Z,98697.59
2023-01-13T09:25:49.091Z,98697.47
2023-01-13T09:28:16.815Z,98702.13
2023-01-13T09:30:44.596Z,98697.34
2023-01-13T09:33:29.827Z,98691.69
2023-01-13T09:36:01.208Z,98685.38
2023-01-13T09:38:29.014Z,98681.59
2023-01-13T09:40:57.036Z,98673.19
2023-01-13T09:44:00.340Z,98675.97
2023-01-13T09:46:47.370Z,98669.41
2023-01-13T09:49:29.170Z,98650.69
2023-01-13T09:52:04.452Z,98656.00
2023-01-13T09:54:39.526Z,98655.56
2023-01-13T09:57:12.802Z,98645.69
2023-01-13T09:59:40.581Z,98645.00
2023-01-13T10:02:33.013Z,98645.81
2023-01-13T10:05:18.725Z,98643.13
2023-01-13T10:07:58.265Z,98621.81
2023-01-13T10:10:38.245Z,98639.63
2023-01-13T10:13:16.124Z,98624.56
2023-01-13T10:16:11.377Z,98620.84
2023-01-13T10:19:01.867Z,98613.34
2023-01-13T10:21:49.901Z,98602.00
2023-01-13T10:24:37.775Z,98624.56
2023-01-13T10:27:13.917Z,98621.56
2023-01-13T10:29:41.570Z,98616.44
2023-01-13T10:32:10.244Z,98606.31
2023-01-13T10:34:50.502Z,98606.63
2023-01-13T10:37:26.937Z,98608.50
2023-01-13T10:40:01.807Z,98616.97
2023-01-13T10:42:29.972Z,98612.59
2023-01-13T10:44:59.987Z,98615.88
2023-01-13T10:47:36.673Z,98614.53
2023-01-13T10:50:09.461Z,98594.63
2023-01-13T10:52:43.032Z,98600.47
2023-01-13T10:55:32.138Z,98597.28
2023-01-13T10:58:26.276Z,98579.69
2023-01-13T11:01:05.124Z,98576.66
2023-01-13T11:03:42.818Z,98567.13
2023-01-13T11:06:21.862Z,98556.38
2023-01-13T11:08:52.441Z,98556.44
2023-01-13T11:11:43.095Z,98539.69
2023-01-13T11:14:43.740Z,98545.47
2023-01-13T11:17:34.556Z,98536.41
2023-01-13T11:20:20.115Z,98542.44
2023-01-13T11:22:51.317Z,98530.38
2023-01-13T11:25:32.462Z,98532.03
2023-01-13T11:28:06.656Z,98529.28
2023-01-13T11:30:50.736Z,98523.81
2023-01-13T11:33:31.875Z,98508.97
2023-01-13T11:36:09.153Z,98524.06
2023-01-13T11:38:51.439Z,98524.63
2023-01-13T11:41:29.401Z,98519.97
2023-01-13T11:44:17.368Z,98509.25
2023-01-13T11:46:45.428Z,98499.94
2023-01-13T11:49:29.410Z,98493.09
2023-01-13T11:52:20.522Z,98485.97
2023-01-13T11:55:11.040Z,98495.03
2023-01-13T11:57:56.861Z,98495.00
2023-01-13T12:00:43.074Z,98494.47
2023-01-13T12:03:29.095Z,98480.47
2023-01-13T12:06:22.690Z,98475.25
2023-01-13T12:08:56.161Z,98476.88
2023-01-13T12:11:58.862Z,98469.75
2023-01-13T12:14:41.366Z,98468.38
2023-01-13T12:17:21.249Z,98470.00
2023-01-13T12:19:51.355Z,98465.09
2023-01-13T12:22:29.146Z,98464.25
2023-01-13T12:25:06.261Z,98456.53
2023-01-13T12:27:48.915Z,98463.09
2023-01-13T12:30:41.874Z,98460.88
2023-01-13T12:33:47.046Z,98454.53
2023-01-13T12:36:41.826Z,98462.72
2023-01-13T12:39:22.619Z,98467.66
2023-01-13T12:42:23.093Z,98470.13
2023-01-13T12:45:28.532Z,98459.38
2023-01-13T12:47:57.510Z,98436.13
2023-01-13T12:50:25.081Z,98455.00
2023-01-13T12:52:52.677Z,98456.41
2023-01-13T12:55:27.405Z,98458.06
2023-01-13T12:57:59.658Z,98462.91
2023-01-13T13:00:42.349Z,98462.66
2023-01-13T13:03:13.812Z,98454.44
2023-01-13T13:06:00.033Z,98461.09
2023-01-13T13:08:27.654Z,98454.81
2023-01-13T13:11:02.110Z,98449.03
2023-01-13T13:13:47.522Z,98453.19
2023-01-13T13:16:50.569Z,98458.91
2023-01-13T13:19:21.301Z,98453.97
2023-01-13T13:22:27.287Z,98451.78
2023-01-13T13:24:58.344Z,98447.94
2023-01-13T13:27:38.228Z,98456.97
2023-01-13T13:30:37.900Z,98463.88
2023-01-13T13:33:17.478Z,98461.41
2023-01-13T13:35:52.182Z,98461.66
2023-01-13T13:38:43.110Z,98454.56
2023-01-13T13:41:36.249Z,98449.38
2023-01-13T13:44:31.571Z,98438.38
2023-01-13T13:47:02.996Z,98420.84
2023-01-13T13:49:49.089Z,98437.56
2023-01-13T13:52:31.559Z,98448.81
2023-01-13T13:55:07.514Z,98453.16
2023-01-13T13:57:42.400Z,98430.41
2023-01-13T14:00:20.603Z,98433.91
2023-01-13T14:02:52.818Z,98427.72
2023-01-13T14:05:24.693Z,98423.97
2023-01-13T14:07:57.513Z,98417.47
2023-01-13T14:10:31.531Z,98408.66
2023-01-13T14:13:01.446Z,98403.59
2023-01-13T14:15:36.055Z,98403.91
2023-01-13T14:18:13.565Z,98407.59
2023-01-13T14:20:42.276Z,98411.28
2023-01-13T14:23:18.491Z,98414.75
2023-01-13T14:25:51.586Z,98421.28
2023-01-13T14:28:21.960Z,98433.88
2023-01-13T14:30:51.626Z,98440.59
2023-01-13T14:33:23.853Z,98449.19
2023-01-13T14:36:18.214Z,98449.72
2023-01-13T14:38:48.235Z,98426.94
2023-01-13T14:41:28.502Z,98436.81
2023-01-13T14:43:59.274Z,98446.47
2023-01-13T14:46:44.924Z,98442.09
2023-01-13T14:49:20.769Z,98430.97
2023-01-13T14:51:48.584Z,98431.25
2023-01-13T14:54:54.784Z,98456.97
2023-01-13T14:57:32.331Z,98452.84
2023-01-13T15:00:14.962Z,98449.22
2023-01-13T15:02:57.987Z,98448.69
2023-01-13T15:05:28.519Z,98456.16
2023-01-13T15:08:04.620Z,98446.06
2023-01-13T15:11:00.864Z,98454.56
2023-01-13T15:13:35.729Z,98457.84
2023-01-13T15:16:15.274Z,98457.09
2023-01-13T15:18:43.118Z,98462.03
2023-01-13T15:21:11.544Z,98462.03
2023-01-13T15:23:41.130Z,98462.56
2023-01-13T15:26:29.352Z,98460.63
2023-01-13T15:28:59.468Z,98444.25
2023-01-13T15:31:28.381Z,98465.91
2023-01-13T15:33:56.374Z,98461.81
2023-01-13T15:36:26.097Z,98438.53
2023-01-13T15:38:53.897Z,98460.16
2023-01-13T15:41:41.833Z,98450.00
2023-01-13T15:44:30.211Z,98464.84
2023-01-13T15:46:58.101Z,98453.06
2023-01-13T15:49:34.916Z,98454.41
2023-01-13T15:52:04.530Z,98448.09
2023-01-13T15:54:32.707Z,98444.53
2023-01-13T15:57:00.357Z,98444.00
2023-01-13T15:59:29.134Z,98448.91
2023-01-13T16:01:56.761Z,98445.63
2023-01-13T16:04:24.413Z,98443.72
2023-01-13T16:06:52.051Z,98419.31
2023-01-13T16:09:19.737Z,98452.19
2023-01-13T16:11:47.398Z,98427.81
2023-01-13T16:14:15.075Z,98452.50
2023-01-13T16:16:42.775Z,98457.16
2023-01-13T16:19:12.982Z,98457.72
2023-01-13T16:21:40.635Z,98467.59
2023-01-13T16:24:08.281Z,98473.34
2023-01-13T16:26:37.639Z,98481.56
2023-01-13T16:29:07.240Z,98477.19
2023-01-13T16:31:35.721Z,98475.00
2023-01-13T16:34:05.628Z,98477.47
2023-01-13T16:36:36.642Z,98485.97
2023-01-13T16:39:05.096Z,98478.00
2023-01-13T16:41:34.454Z,98469.50
2023-01-13T16:44:05.978Z,98470.06
2023-01-13T16:46:33.908Z,98480.75
2023-01-13T16:49:04.786Z,98485.94
2023-01-13T16:51:33.229Z,98489.78
2023-01-13T16:54:01.109Z,98489.50
2023-01-13T16:56:31.973Z,98497.72
2023-01-13T16:59:05.685Z,98501.03
2023-01-13T17:01:35.513Z,98480.72
2023-01-13T17:04:03.259Z,98498.03
2023-01-13T17:06:40.886Z,98499.13
2023-01-13T17:09:18.074Z,98489.78
2023-01-13T17:11:45.736Z,98496.09
2023-01-13T17:14:18.294Z,98485.38
2023-01-13T17:16:47.884Z,98493.88
2023-01-13T17:19:15.678Z,98490.84
2023-01-13T17:21:43.406Z,98498.50
2023-01-13T17:24:12.435Z,98496.00
2023-01-13T17:26:47.556Z,98495.44
2023-01-13T17:29:18.552Z,98481.41
2023-01-13T17:31:46.380Z,98500.59
2023-01-13T17:34:14.257Z,98506.34
2023-01-13T17:36:43.456Z,98515.19
2023-01-13T17:39:17.343Z,98505.31
2023-01-13T17:41:45.857Z,98511.88
2023-01-13T17:44:18.049Z,98507.44
2023-01-13T17:46:46.389Z,98486.75
2023-01-13T17:49:15.145Z,98505.59
2023-01-13T17:51:42.964Z,98529.94
2023-01-13T17:54:12.421Z,98533.53
2023-01-13T17:56:41.541Z,98535.28
2023-01-13T17:59:12.233Z,98520.53
2023-01-13T18:01:40.218Z,98503.84
2023-01-13T18:04:08.163Z,98527.84
2023-01-13T18:06:35.807Z,98534.75
2023-01-13T18:09:03.516Z,98538.88
2023-01-13T18:11:31.156Z,98519.56
2023-01-13T18:14:00.201Z,98535.44
2023-01-13T18:16:30.328Z,98564.09
2023-01-13T18:19:19.261Z,98551.66
2023-01-13T18:22:04.789Z,98564.75
2023-01-13T18:24:49.147Z,98557.22
2023-01-13T18:27:22.949Z,98565.44
2023-01-13T18:29:55.968Z,98556.66
2023-01-13T18:32:26.412Z,98551.22
2023-01-13T18:35:05.098Z,98566.81
2023-01-13T18:37:35.718Z,98568.25
2023-01-13T18:40:03.718Z,98576.03
2023-01-13T18:42:48.873Z,98584.69
2023-01-13T18:45:16.678Z,98579.47
2023-01-13T18:47:44.295Z,98578.25
2023-01-13T18:50:13.821Z,98572.44
2023-01-13T18:52:41.793Z,98570.41
2023-01-13T18:55:10.011Z,98578.84
2023-01-13T18:57:40.019Z,98578.88
2023-01-13T19:00:14.746Z,98600.59
2023-01-13T19:02:42.475Z,98596.66
2023-01-13T19:05:10.944Z,98597.16
2023-01-13T19:07:39.144Z,98602.44
2023-01-13T19:10:09.794Z,98610.03
2023-01-13T19:12:37.794Z,98578.09
2023-01-13T19:15:06.080Z,98600.53
2023-01-13T19:17:35.699Z,98593.06
2023-01-13T19:20:05.149Z,98602.09
2023-01-13T19:22:35.225Z,98582.25
2023-01-13T19:25:04.072Z,98613.47
2023-01-13T19:27:32.281Z,98621.38
2023-01-13T19:30:00.766Z,98624.38
2023-01-13T19:32:30.915Z,98633.13
2023-01-13T19:34:59.810Z,98631.00
2023-01-13T19:37:30.301Z,98627.91
2023-01-13T19:40:01.272Z,98651.09
2023-01-13T19:42:46.613Z,98650.94
2023-01-13T19:45:30.652Z,98648.41
2023-01-13T19:48:01.698Z,98646.13
2023-01-13T19:50:30.291Z,98646.13
2023-01-13T19:52:58.021Z,98647.03
2023-01-13T19:55:25.667Z,98646.50
2023-01-13T19:57:53.385Z,98642.31
2023-01-13T20:00:21.929Z,98635.56
2023-01-13T20:02:52.030Z,98640.72
2023-01-13T20:05:22.696Z,98631.41
2023-01-13T20:07:51.916Z,98636.97
2023-01-13T20:10:21.673Z,98633.22
2023-01-13T20:12:49.507Z,98603.56
2023-01-13T20:15:17.368Z,98623.25
2023-01-13T20:17:45.066Z,98611.34
2023-01-13T20:20:13.666Z,98592.09
2023-01-13T20:22:41.705Z,98599.38
2023-01-13T20:25:10.319Z,98607.59
2023-01-13T20:27:38.031Z,98621.63
2023-01-13T20:30:09.484Z,98615.72
2023-01-13T20:32:37.664Z,98637.91
2023-01-13T20:35:07.148Z,98638.19
2023-01-13T20:37:35.862Z,98648.78
2023-01-13T20:40:05.034Z,98628.34
2023-01-13T20:42:42.331Z,98653.56
2023-01-13T20:45:10.556Z,98626.47
2023-01-13T20:47:38.195Z,98636.47
2023-01-13T20:50:06.106Z,98661.69
2023-01-13T20:52:33.938Z,98660.09
2023-01-13T20:55:01.596Z,98668.72
2023-01-13T20:57:29.259Z,98655.63
2023-01-13T20:59:56.915Z,98670.16
2023-01-13T21:02:25.429Z,98677.53
2023-01-13T21:04:53.168Z,98682.91
2023-01-13T21:07:20.961Z,98688.09
2023-01-13T21:09:48.639Z,98683.34
2023-01-13T21:12:34.214Z,98691.50
2023-01-13T21:15:21.925Z,98677.88
2023-01-13T21:18:09.323Z,98708.78
2023-01-13T21:20:38.676Z,98702.19
2023-01-13T21:23:07.221Z,98708.16
2023-01-13T21:25:37.239Z,98699.44
2023-01-13T21:28:08.607Z,98676.94
2023-01-13T21:30:38.293Z,98705.00
2023-01-13T21:33:06.341Z,98701.13
2023-01-13T21:35:34.482Z,98706.72
2023-01-13T21:38:02.107Z,98702.09
2023-01-13T21:40:29.783Z,98716.31
2023-01-13T21:43:14.872Z,98720.00
2023-01-13T21:45:59.932Z,98721.59
2023-01-13T21:48:27.576Z,98726.44
2023-01-13T21:50:55.229Z,98733.66
2023-01-13T21:53:22.868Z,98738.06
2023-01-13T21:55:53.670Z,98706.03
2023-01-13T21:58:21.274Z,98733.09
2023-01-13T22:00:49.824Z,98736.09
2023-01-13T22:03:18.588Z,98742.38
2023-01-13T22:05:46.500Z,98744.09
2023-01-13T22:08:14.737Z,98742.00
2023-01-13T22:10:57.134Z,98727.34
2023-01-13T22:13:42.412Z,98746.03
2023-01-13T22:16:12.503Z,98759.00
2023-01-13T22:18:40.212Z,98735.41
2023-01-13T22:21:08.060Z,98745.56
2023-01-13T22:23:35.696Z,98770.28
2023-01-13T22:26:08.264Z,98765.66
2023-01-13T22:28:40.778Z,98745.41
2023-01-13T22:31:16.582Z,98760.63
2023-01-13T22:33:46.956Z,98759.28
2023-01-13T22:36:15.751Z,98772.19
2023-01-13T22:38:43.458Z,98777.47
2023-01-13T22:41:11.579Z,98773.78
2023-01-13T22:43:39.651Z,98785.81
2023-01-13T22:46:12.552Z,98781.69
2023-01-13T22:48:41.679Z,98792.94
2023-01-13T22:51:12.657Z,98799.09
2023-01-13T22:53:41.191Z,98797.69
2023-01-13T22:56:11.650Z,98799.41
2023-01-13T22:58:39.259Z,98790.06
2023-01-13T23:01:18.321Z,98803.00
2023-01-13T23:03:48.321Z,98807.63
2023-01-13T23:06:18.179Z,98804.88
2023-01-13T23:08:47.084Z,98815.31
2023-01-13T23:11:17.281Z,98827.41
2023-01-13T23:13:45.427Z,98800.56
2023-01-13T23:16:16.482Z,98839.09
2023-01-13T23:18:47.740Z,98835.25
2023-01-13T23:21:22.032Z,98833.31
2023-01-13T23:23:50.251Z,98827.38
2023-01-13T23:26:17.974Z,98837.28
2023-01-13T23:28:45.836Z,98836.03
2023-01-13T23:31:16.345Z,98816.09
2023-01-13T23:33:44.897Z,98839.41
2023-01-13T23:36:21.421Z,98826.19
2023-01-13T23:38:49.502Z,98850.75
2023-01-13T23:41:19.624Z,98831.81
2023-01-13T23:43:55.808Z,98842.97
2023-01-13T23:46:23.872Z,98843.56
2023-01-13T23:48:52.540Z,98850.72
2023-01-13T23:51:21.897Z,98844.06
2023-01-13T23:53:50.653Z,98826.72
2023-01-13T23:56:23.623Z,98825.63
2023-01-13T23:58:52.230Z,98849.78
